AFX14 LSZH-DTMB
Flight info
| Callsign | AFX14 |
|---|---|
| Flight time | N/A |
| Altitude | 39000 |
| Route | DEGES DCT ASGED DCT ARTAG T53 GERSA N850 ODINA DCT LUKIM DCT SUNEV DCT QUENN DCT ABDAB UN157 ADRIL DCT ATLEL ATLEL1R |
| Aircraft | A346/H-SDE2E3FGHIJ3J4J5M1RWXY/LB1D1 |
Departure
| Time | N/A |
|---|---|
| Airport | Zürich Airport (LSZH) |
Arrival
| Time | 2026-04-29 11:40 |
|---|---|
| Airport | Monastir Habib Bourguiba International Airport (DTMB) |
| Time | Latitude | Longitude | Altitude | Speed | Heading |
|---|---|---|---|---|---|
| 2026-04-29 10:54 | 40.25893 | 10.51713 | 38954 ft | 439 kts | 171° |
| 2026-04-29 10:55 | 40.19904 | 10.53370 | 38988 ft | 441 kts | 173° |
| 2026-04-29 10:55 | 40.13808 | 10.54403 | 38999 ft | 448 kts | 179° |
| 2026-04-29 10:56 | 40.07518 | 10.54707 | 39006 ft | 458 kts | 182° |
| 2026-04-29 10:56 | 40.01082 | 10.54950 | 39002 ft | 468 kts | 182° |
| 2026-04-29 10:57 | 39.94506 | 10.55205 | 39003 ft | 477 kts | 182° |
| 2026-04-29 10:57 | 39.87831 | 10.55461 | 39001 ft | 482 kts | 182° |
| 2026-04-29 10:58 | 39.81122 | 10.55718 | 38999 ft | 482 kts | 182° |
| 2026-04-29 10:58 | 39.74411 | 10.55976 | 39001 ft | 482 kts | 182° |
| 2026-04-29 10:59 | 39.67700 | 10.56231 | 38992 ft | 482 kts | 182° |
| 2026-04-29 10:59 | 39.60989 | 10.56486 | 38993 ft | 482 kts | 182° |
| 2026-04-29 11:00 | 39.54281 | 10.56741 | 39007 ft | 483 kts | 182° |
| 2026-04-29 11:00 | 39.47564 | 10.56995 | 39013 ft | 483 kts | 182° |
| 2026-04-29 11:01 | 39.40848 | 10.57249 | 38999 ft | 483 kts | 182° |
| 2026-04-29 11:01 | 39.34131 | 10.57503 | 39004 ft | 483 kts | 182° |
| 2026-04-29 11:02 | 39.27420 | 10.57755 | 38998 ft | 482 kts | 182° |
| 2026-04-29 11:02 | 39.20705 | 10.58008 | 38998 ft | 482 kts | 182° |
| 2026-04-29 11:03 | 39.13997 | 10.58260 | 38999 ft | 482 kts | 183° |
| 2026-04-29 11:03 | 39.07284 | 10.58512 | 39003 ft | 483 kts | 183° |
| 2026-04-29 11:04 | 39.00569 | 10.58762 | 39003 ft | 483 kts | 183° |
| 2026-04-29 11:04 | 38.93861 | 10.59012 | 38998 ft | 483 kts | 183° |
| 2026-04-29 11:05 | 38.87191 | 10.59261 | 38988 ft | 482 kts | 183° |
| 2026-04-29 11:05 | 38.80482 | 10.59510 | 38991 ft | 482 kts | 183° |
| 2026-04-29 11:06 | 38.73776 | 10.59759 | 38985 ft | 482 kts | 184° |
| 2026-04-29 11:06 | 38.67069 | 10.60007 | 38995 ft | 482 kts | 184° |
| 2026-04-29 11:07 | 38.60358 | 10.60254 | 38994 ft | 482 kts | 184° |
| 2026-04-29 11:07 | 38.53655 | 10.60502 | 38986 ft | 482 kts | 184° |
| 2026-04-29 11:08 | 38.46953 | 10.60748 | 38988 ft | 481 kts | 184° |
| 2026-04-29 11:08 | 38.40258 | 10.60993 | 38988 ft | 481 kts | 184° |
| 2026-04-29 11:09 | 38.33560 | 10.61239 | 38988 ft | 481 kts | 184° |
| 2026-04-29 11:09 | 38.26862 | 10.61484 | 38988 ft | 481 kts | 184° |
| 2026-04-29 11:10 | 38.20165 | 10.61727 | 38985 ft | 481 kts | 184° |
| 2026-04-29 11:10 | 38.13472 | 10.61971 | 38998 ft | 481 kts | 184° |
| 2026-04-29 11:11 | 38.06784 | 10.62214 | 38993 ft | 481 kts | 184° |
| 2026-04-29 11:11 | 38.00157 | 10.62455 | 38917 ft | 476 kts | 184° |
| 2026-04-29 11:11 | 37.96866 | 10.62578 | 38485 ft | 472 kts | 185° |
| 2026-04-29 11:12 | 37.93549 | 10.62698 | 37923 ft | 469 kts | 184° |
| 2026-04-29 11:12 | 37.90340 | 10.62810 | 37441 ft | 466 kts | 184° |
| 2026-04-29 11:12 | 37.87114 | 10.62911 | 37004 ft | 461 kts | 185° |
| 2026-04-29 11:12 | 37.83919 | 10.62975 | 36571 ft | 457 kts | 185° |
| 2026-04-29 11:13 | 37.80755 | 10.63028 | 36129 ft | 453 kts | 185° |
| 2026-04-29 11:13 | 37.77616 | 10.63079 | 35662 ft | 450 kts | 185° |
| 2026-04-29 11:13 | 37.74491 | 10.63131 | 35119 ft | 449 kts | 184° |
| 2026-04-29 11:13 | 37.71370 | 10.63184 | 34552 ft | 448 kts | 184° |
| 2026-04-29 11:14 | 37.68259 | 10.63238 | 34033 ft | 446 kts | 184° |
| 2026-04-29 11:14 | 37.65161 | 10.63294 | 33579 ft | 443 kts | 184° |
| 2026-04-29 11:14 | 37.62086 | 10.63352 | 33140 ft | 440 kts | 184° |
| 2026-04-29 11:14 | 37.59037 | 10.63409 | 32701 ft | 436 kts | 184° |
| 2026-04-29 11:15 | 37.56996 | 10.63447 | 32417 ft | 434 kts | 184° |
| 2026-04-29 11:15 | 37.53987 | 10.63503 | 31987 ft | 430 kts | 184° |
| 2026-04-29 11:15 | 37.51004 | 10.63557 | 31553 ft | 427 kts | 184° |
| 2026-04-29 11:15 | 37.48050 | 10.63612 | 31127 ft | 423 kts | 184° |
| 2026-04-29 11:16 | 37.45116 | 10.63664 | 30703 ft | 420 kts | 184° |
| 2026-04-29 11:16 | 37.42143 | 10.63714 | 30460 ft | 436 kts | 183° |
| 2026-04-29 11:16 | 37.39087 | 10.63768 | 30580 ft | 440 kts | 183° |
| 2026-04-29 11:16 | 37.36027 | 10.63826 | 30164 ft | 441 kts | 183° |
| 2026-04-29 11:17 | 37.32934 | 10.63881 | 29254 ft | 449 kts | 183° |
| 2026-04-29 11:17 | 37.29739 | 10.63932 | 28545 ft | 468 kts | 183° |
| 2026-04-29 11:17 | 37.26458 | 10.63988 | 28127 ft | 474 kts | 182° |
| 2026-04-29 11:18 | 37.19875 | 10.64135 | 28015 ft | 478 kts | 182° |
| 2026-04-29 11:18 | 37.13196 | 10.64325 | 27851 ft | 472 kts | 182° |
| 2026-04-29 11:18 | 37.09972 | 10.64416 | 27255 ft | 469 kts | 182° |
| 2026-04-29 11:19 | 37.06714 | 10.64502 | 26582 ft | 467 kts | 182° |
| 2026-04-29 11:19 | 37.03472 | 10.64587 | 25996 ft | 464 kts | 182° |
| 2026-04-29 11:19 | 37.00260 | 10.64672 | 25401 ft | 460 kts | 182° |
| 2026-04-29 11:19 | 36.97073 | 10.64755 | 24813 ft | 457 kts | 182° |
| 2026-04-29 11:20 | 36.93911 | 10.64839 | 24244 ft | 453 kts | 182° |
| 2026-04-29 11:20 | 36.90769 | 10.64922 | 23670 ft | 449 kts | 181° |
| 2026-04-29 11:20 | 36.87656 | 10.65005 | 23103 ft | 446 kts | 181° |
| 2026-04-29 11:20 | 36.84569 | 10.65089 | 22539 ft | 442 kts | 181° |
| 2026-04-29 11:21 | 36.81511 | 10.65189 | 21997 ft | 439 kts | 180° |
| 2026-04-29 11:21 | 36.78486 | 10.65676 | 21413 ft | 438 kts | 172° |
| 2026-04-29 11:21 | 36.75551 | 10.66672 | 20881 ft | 436 kts | 163° |
| 2026-04-29 11:21 | 36.72753 | 10.68119 | 20335 ft | 434 kts | 158° |
| 2026-04-29 11:22 | 36.70029 | 10.69718 | 19790 ft | 431 kts | 157° |
| 2026-04-29 11:22 | 36.67335 | 10.71328 | 19235 ft | 428 kts | 157° |
| 2026-04-29 11:22 | 36.64664 | 10.72923 | 18680 ft | 424 kts | 157° |
| 2026-04-29 11:22 | 36.62010 | 10.74501 | 18150 ft | 420 kts | 157° |
| 2026-04-29 11:23 | 36.59383 | 10.76055 | 17608 ft | 416 kts | 158° |
| 2026-04-29 11:23 | 36.56774 | 10.77593 | 17062 ft | 413 kts | 158° |
| 2026-04-29 11:23 | 36.54185 | 10.79113 | 16520 ft | 410 kts | 157° |
| 2026-04-29 11:23 | 36.51621 | 10.80619 | 16106 ft | 406 kts | 157° |
| 2026-04-29 11:24 | 36.49065 | 10.82119 | 16019 ft | 407 kts | 157° |
| 2026-04-29 11:24 | 36.46500 | 10.83624 | 16017 ft | 408 kts | 157° |
| 2026-04-29 11:24 | 36.43934 | 10.85127 | 16015 ft | 408 kts | 157° |
| 2026-04-29 11:24 | 36.41385 | 10.86621 | 15765 ft | 401 kts | 157° |
| 2026-04-29 11:25 | 36.38874 | 10.88090 | 14632 ft | 398 kts | 157° |
| 2026-04-29 11:25 | 36.36389 | 10.89541 | 13599 ft | 391 kts | 157° |
| 2026-04-29 11:25 | 36.33869 | 10.90687 | 12511 ft | 382 kts | 169° |
| 2026-04-29 11:25 | 36.31260 | 10.91016 | 11472 ft | 373 kts | 183° |
| 2026-04-29 11:26 | 36.26242 | 10.89856 | 10247 ft | 367 kts | 194° |
| 2026-04-29 11:26 | 36.23754 | 10.89098 | 10238 ft | 369 kts | 194° |
| 2026-04-29 11:26 | 36.21260 | 10.88344 | 10240 ft | 370 kts | 194° |
| 2026-04-29 11:27 | 36.18757 | 10.87594 | 10240 ft | 370 kts | 194° |
| 2026-04-29 11:27 | 36.16290 | 10.86859 | 10225 ft | 354 kts | 194° |
| 2026-04-29 11:27 | 36.13986 | 10.86175 | 10143 ft | 326 kts | 194° |
| 2026-04-29 11:27 | 36.11859 | 10.85543 | 9936 ft | 304 kts | 194° |
| 2026-04-29 11:28 | 36.09855 | 10.84947 | 9546 ft | 290 kts | 194° |
| 2026-04-29 11:28 | 36.07894 | 10.84364 | 8715 ft | 291 kts | 193° |
| 2026-04-29 11:28 | 36.05903 | 10.83771 | 7764 ft | 296 kts | 193° |
| 2026-04-29 11:28 | 36.03902 | 10.83177 | 6978 ft | 294 kts | 193° |
| 2026-04-29 11:29 | 36.01947 | 10.82599 | 6239 ft | 291 kts | 192° |
| 2026-04-29 11:29 | 35.99989 | 10.82020 | 5475 ft | 288 kts | 192° |
| 2026-04-29 11:29 | 35.98123 | 10.81176 | 4677 ft | 288 kts | 212° |
| 2026-04-29 11:29 | 35.96755 | 10.79419 | 4170 ft | 283 kts | 239° |
| 2026-04-29 11:30 | 35.96194 | 10.77168 | 3996 ft | 269 kts | 264° |
| 2026-04-29 11:30 | 35.96312 | 10.74827 | 4098 ft | 270 kts | 274° |
| 2026-04-29 11:30 | 35.96494 | 10.72529 | 4033 ft | 267 kts | 270° |
| 2026-04-29 11:30 | 35.96475 | 10.70275 | 4002 ft | 265 kts | 262° |
| 2026-04-29 11:31 | 35.96223 | 10.67997 | 4000 ft | 263 kts | 255° |
| 2026-04-29 11:31 | 35.95767 | 10.65812 | 4008 ft | 262 kts | 249° |
| 2026-04-29 11:31 | 35.95142 | 10.63740 | 4005 ft | 260 kts | 243° |
| 2026-04-29 11:31 | 35.94354 | 10.61738 | 4010 ft | 256 kts | 238° |
| 2026-04-29 11:32 | 35.93464 | 10.59907 | 3992 ft | 241 kts | 233° |
| 2026-04-29 11:32 | 35.92507 | 10.58260 | 3987 ft | 234 kts | 228° |
| 2026-04-29 11:32 | 35.91459 | 10.56734 | 3998 ft | 232 kts | 224° |
| 2026-04-29 11:32 | 35.90325 | 10.55322 | 4057 ft | 231 kts | 220° |
| 2026-04-29 11:33 | 35.89113 | 10.54023 | 4027 ft | 230 kts | 216° |
| 2026-04-29 11:33 | 35.87829 | 10.52842 | 4022 ft | 229 kts | 212° |
| 2026-04-29 11:33 | 35.86487 | 10.51786 | 4010 ft | 229 kts | 207° |
| 2026-04-29 11:33 | 35.85087 | 10.50856 | 4010 ft | 228 kts | 204° |
| 2026-04-29 11:34 | 35.83641 | 10.50059 | 4007 ft | 227 kts | 199° |
| 2026-04-29 11:34 | 35.82147 | 10.49393 | 4011 ft | 230 kts | 195° |
| 2026-04-29 11:34 | 35.80599 | 10.48859 | 4000 ft | 231 kts | 191° |
| 2026-04-29 11:34 | 35.79026 | 10.48468 | 3995 ft | 231 kts | 187° |
| 2026-04-29 11:35 | 35.77434 | 10.48223 | 4001 ft | 230 kts | 184° |
| 2026-04-29 11:35 | 35.75836 | 10.48122 | 4007 ft | 230 kts | 179° |
| 2026-04-29 11:35 | 35.74241 | 10.48167 | 4000 ft | 229 kts | 175° |
| 2026-04-29 11:35 | 35.72655 | 10.48360 | 4001 ft | 229 kts | 170° |
| 2026-04-29 11:36 | 35.71237 | 10.49171 | 3955 ft | 229 kts | 137° |
| 2026-04-29 11:36 | 35.70486 | 10.50892 | 3790 ft | 233 kts | 106° |
| 2026-04-29 11:36 | 35.70439 | 10.52891 | 3478 ft | 236 kts | 86° |
| 2026-04-29 11:36 | 35.70810 | 10.54870 | 3162 ft | 236 kts | 76° |
| 2026-04-29 11:37 | 35.71308 | 10.56745 | 2774 ft | 229 kts | 75° |
| 2026-04-29 11:37 | 35.71775 | 10.58543 | 2473 ft | 210 kts | 76° |
| 2026-04-29 11:37 | 35.72175 | 10.60193 | 2218 ft | 193 kts | 77° |
| 2026-04-29 11:37 | 35.72541 | 10.61751 | 1993 ft | 187 kts | 76° |
| 2026-04-29 11:38 | 35.72893 | 10.63254 | 1764 ft | 175 kts | 76° |
| 2026-04-29 11:38 | 35.73227 | 10.64668 | 1527 ft | 170 kts | 75° |
| 2026-04-29 11:38 | 35.73557 | 10.66059 | 1326 ft | 165 kts | 75° |
| 2026-04-29 11:38 | 35.73877 | 10.67406 | 1118 ft | 164 kts | 74° |
| 2026-04-29 11:39 | 35.74195 | 10.68742 | 919 ft | 160 kts | 74° |
| 2026-04-29 11:39 | 35.74505 | 10.70044 | 670 ft | 157 kts | 75° |
| 2026-04-29 11:39 | 35.74812 | 10.71338 | 468 ft | 158 kts | 73° |
| 2026-04-29 11:39 | 35.75120 | 10.72623 | 255 ft | 155 kts | 74° |
| 2026-04-29 11:40 | 35.75413 | 10.73855 | 34 ft | 143 kts | 74° |
| 2026-04-29 11:40 | 35.75664 | 10.74909 | 21 ft | 96 kts | 74° |
| 2026-04-29 11:40 | 35.75780 | 10.75374 | 21 ft | 22 kts | 68° |
| 2026-04-29 11:40 | 35.75836 | 10.75443 | 21 ft | 0 kts | 18° |
| 2026-04-29 11:41 | 35.75848 | 10.75447 | 21 ft | 4 kts | 16° |
| 2026-04-29 11:41 | 35.75850 | 10.75448 | 21 ft | 0 kts | 16° |
| 2026-04-29 11:41 | 35.75894 | 10.75454 | 20 ft | 18 kts | 11° |
| 2026-04-29 11:41 | 35.75975 | 10.75570 | 19 ft | 20 kts | 71° |
| 2026-04-29 11:42 | 35.76032 | 10.75818 | 20 ft | 20 kts | 73° |
| 2026-04-29 11:42 | 35.76053 | 10.75886 | 19 ft | 4 kts | 47° |
| 2026-04-29 11:42 | 35.76116 | 10.75894 | 19 ft | 12 kts | 347° |
| 2026-04-29 11:42 | 35.76147 | 10.75886 | 19 ft | 0 kts | 347° |
| 2026-04-29 11:50 | 35.76149 | 10.75885 | 19 ft | 4 kts | 347° |
| 2026-04-29 11:50 | 35.76173 | 10.75884 | 20 ft | 9 kts | 74° |
| 2026-04-29 11:50 | 35.76164 | 10.75820 | 20 ft | 8 kts | 87° |
| 2026-04-29 11:50 | 35.76164 | 10.75805 | 20 ft | 0 kts | 95° |
| 2026-04-29 12:00 | 35.76164 | 10.75804 | 19 ft | 0 kts | 95° |
| 2026-04-29 12:02 | 35.76165 | 10.75804 | 19 ft | 0 kts | 95° |
| 2026-04-29 12:03 | 35.76165 | 10.75803 | 19 ft | 0 kts | 95° |
| 2026-04-29 12:06 | 35.76165 | 10.75802 | 19 ft | 0 kts | 95° |
| 2026-04-29 12:07 | 35.76165 | 10.75800 | 19 ft | 0 kts | 95° |
| 2026-04-29 12:07 | 35.76165 | 10.75799 | 19 ft | 0 kts | 95° |